createdAt,value
2019-05-22T00:03:28.224Z,100372.89
2019-05-22T00:08:32.332Z,100378.62
2019-05-22T00:13:37.408Z,100383.23
2019-05-22T00:18:41.574Z,100382.60
2019-05-22T00:23:46.398Z,100387.33
2019-05-22T00:28:50.807Z,100391.80
2019-05-22T00:33:55.637Z,100398.00
2019-05-22T00:38:59.696Z,100406.41
2019-05-22T00:44:04.523Z,100390.54
2019-05-22T00:49:09.937Z,100387.03
2019-05-22T00:54:14.032Z,100395.02
2019-05-22T00:59:19.512Z,100406.13
2019-05-22T01:04:32.887Z,100412.34
2019-05-22T01:09:37.548Z,100427.89
2019-05-22T01:14:43.143Z,100431.31
2019-05-22T01:19:49.095Z,100422.20
2019-05-22T01:24:54.205Z,100423.67
2019-05-22T01:29:59.548Z,100428.02
2019-05-22T01:35:03.920Z,100437.14
2019-05-22T01:40:10.298Z,100431.64
2019-05-22T01:45:14.422Z,100435.39
2019-05-22T01:50:35.302Z,100429.78
2019-05-22T01:55:39.403Z,100431.22
2019-05-22T02:00:43.739Z,100433.19
2019-05-22T02:05:47.830Z,100436.41
2019-05-22T02:10:53.390Z,100444.60
2019-05-22T02:15:58.029Z,100453.64
2019-05-22T02:21:03.193Z,100463.44
2019-05-22T02:26:08.536Z,100467.55
2019-05-22T02:31:14.431Z,100461.75
2019-05-22T02:36:18.913Z,100464.76
2019-05-22T02:41:25.486Z,100459.89
2019-05-22T02:46:29.494Z,100459.24
2019-05-22T02:51:33.653Z,100470.63
2019-05-22T02:56:37.735Z,100475.22
2019-05-22T03:01:42.432Z,100481.82
2019-05-22T03:06:47.181Z,100487.02
2019-05-22T03:11:59.610Z,100495.28
2019-05-22T03:17:05.731Z,100498.77
2019-05-22T03:22:27.967Z,100506.41
2019-05-22T03:27:40.217Z,100507.83
2019-05-22T03:32:44.913Z,100511.34
2019-05-22T03:37:49.691Z,100520.81
2019-05-22T03:42:55.521Z,100516.62
2019-05-22T03:47:59.747Z,100525.34
2019-05-22T03:53:14.172Z,100524.34
2019-05-22T03:58:18.516Z,100526.59
2019-05-22T04:03:23.651Z,100532.73
2019-05-22T04:08:28.353Z,100531.91
2019-05-22T04:13:32.877Z,100541.14
2019-05-22T04:18:37.693Z,100542.92
2019-05-22T04:23:41.762Z,100555.28
2019-05-22T04:28:50.793Z,100551.58
2019-05-22T04:33:54.796Z,100566.88
2019-05-22T04:39:01.059Z,100562.48
2019-05-22T04:44:05.481Z,100565.31
2019-05-22T04:49:09.498Z,100576.78
2019-05-22T04:54:14.152Z,100582.52
2019-05-22T04:59:18.182Z,100589.22
2019-05-22T05:04:22.985Z,100585.84
2019-05-22T05:09:27.193Z,100596.71
2019-05-22T05:14:31.262Z,100593.97
2019-05-22T05:19:35.736Z,100604.54
2019-05-22T05:24:40.119Z,100612.66
2019-05-22T05:29:44.599Z,100602.33
2019-05-22T05:34:59.860Z,100608.62
2019-05-22T05:40:28.015Z,100612.67
2019-05-22T05:45:33.235Z,100612.07
2019-05-22T05:50:40.024Z,100616.11
2019-05-22T05:56:13.388Z,100619.40
2019-05-22T06:01:19.803Z,100623.16
2019-05-22T06:07:10.791Z,100628.34
2019-05-22T06:12:15.598Z,100626.92
2019-05-22T06:17:55.886Z,100633.19
2019-05-22T06:23:43.903Z,100638.56
2019-05-22T06:28:49.027Z,100650.56
2019-05-22T06:33:54.414Z,100651.30
2019-05-22T06:39:01.121Z,100653.73
2019-05-22T06:44:37.088Z,100655.35
2019-05-22T06:49:44.341Z,100665.52
2019-05-22T06:54:48.721Z,100663.38
2019-05-22T07:00:11.649Z,100667.37
2019-05-22T07:04:58.710Z,100679.33
2019-05-22T07:10:03.207Z,100675.19
2019-05-22T07:15:37.085Z,100684.84
2019-05-22T07:20:41.312Z,100685.16
2019-05-22T07:25:46.395Z,100680.66
2019-05-22T07:30:50.639Z,100685.44
2019-05-22T07:36:09.324Z,100694.22
2019-05-22T07:41:01.994Z,100710.16
2019-05-22T07:46:06.076Z,100713.02
2019-05-22T07:51:11.164Z,100723.50
2019-05-22T07:56:15.949Z,100718.89
2019-05-22T08:01:20.645Z,100723.50
2019-05-22T08:06:25.122Z,100728.27
2019-05-22T08:11:29.316Z,100727.51
2019-05-22T08:16:34.882Z,100729.62
2019-05-22T08:21:39.940Z,100731.66
2019-05-22T08:26:54.629Z,100733.14
2019-05-22T08:31:52.534Z,100740.82
2019-05-22T08:36:57.533Z,100744.00
2019-05-22T08:42:02.565Z,100753.59
2019-05-22T08:47:06.735Z,100756.48
2019-05-22T08:52:23.145Z,100753.27
2019-05-22T08:57:20.295Z,100777.58
2019-05-22T09:02:24.596Z,100778.83
2019-05-22T09:07:28.722Z,100777.27
2019-05-22T09:12:35.612Z,100783.72
2019-05-22T09:17:39.932Z,100777.18
2019-05-22T09:22:44.866Z,100786.30
2019-05-22T09:27:49.274Z,100794.38
2019-05-22T09:32:53.874Z,100791.84
2019-05-22T09:37:58.866Z,100806.23
2019-05-22T09:43:03.514Z,100800.88
2019-05-22T09:48:07.550Z,100798.09
2019-05-22T09:53:11.794Z,100807.97
2019-05-22T09:58:15.878Z,100809.55
2019-05-22T10:03:20.331Z,100817.62
2019-05-22T10:08:24.468Z,100824.75
2019-05-22T10:13:29.526Z,100836.50
2019-05-22T10:18:33.707Z,100832.44
2019-05-22T10:23:38.756Z,100846.50
2019-05-22T10:28:43.100Z,100832.20
2019-05-22T10:33:47.243Z,100843.70
2019-05-22T10:38:51.366Z,100847.73
2019-05-22T10:43:55.495Z,100854.80
2019-05-22T10:48:59.838Z,100862.33
2019-05-22T10:54:04.594Z,100849.23
2019-05-22T10:59:08.624Z,100854.19
2019-05-22T11:04:12.949Z,100866.18
2019-05-22T11:09:16.936Z,100873.66
2019-05-22T11:14:21.010Z,100871.57
2019-05-22T11:19:25.854Z,100881.39
2019-05-22T11:24:30.027Z,100878.87
2019-05-22T11:29:34.027Z,100890.33
2019-05-22T11:34:38.477Z,100898.66
2019-05-22T11:39:44.910Z,100899.88
2019-05-22T11:44:48.283Z,100907.86
2019-05-22T11:49:52.302Z,100898.70
2019-05-22T11:54:57.043Z,100902.73
2019-05-22T12:00:01.069Z,100905.53
2019-05-22T12:05:07.735Z,100911.31
2019-05-22T12:10:14.114Z,100910.06
2019-05-22T12:15:20.968Z,100902.84
2019-05-22T12:20:26.134Z,100916.41
2019-05-22T12:25:30.697Z,100922.69
2019-05-22T12:30:35.715Z,100924.64
2019-05-22T12:35:41.287Z,100914.53
2019-05-22T12:40:45.417Z,100928.84
2019-05-22T12:45:49.497Z,100923.20
2019-05-22T12:50:53.668Z,100920.58
2019-05-22T12:55:58.798Z,100927.12
2019-05-22T13:01:03.521Z,100917.32
2019-05-22T13:06:08.826Z,100929.84
2019-05-22T13:11:13.269Z,100933.00
2019-05-22T13:16:17.501Z,100940.55
2019-05-22T13:21:27.827Z,100937.03
2019-05-22T13:26:34.252Z,100938.37
2019-05-22T13:31:39.140Z,100947.34
2019-05-22T13:36:45.111Z,100941.80
2019-05-22T13:41:50.316Z,100952.95
2019-05-22T13:46:55.822Z,100953.66
2019-05-22T13:52:00.279Z,100941.87
2019-05-22T13:57:04.886Z,100942.42
2019-05-22T14:02:09.669Z,100952.03
2019-05-22T14:07:13.959Z,100955.36
2019-05-22T14:12:18.725Z,100964.73
2019-05-22T14:17:22.869Z,100966.69
2019-05-22T14:22:28.733Z,100973.10
2019-05-22T14:27:32.804Z,100979.45
2019-05-22T14:32:36.899Z,100983.52
2019-05-22T14:37:41.809Z,100975.92
2019-05-22T14:42:46.082Z,100979.21
2019-05-22T14:47:50.864Z,100989.66
2019-05-22T14:52:55.487Z,100996.55
2019-05-22T14:58:03.517Z,101000.55
2019-05-22T15:03:08.547Z,101007.00
2019-05-22T15:08:12.626Z,101006.73
2019-05-22T15:13:17.185Z,101006.36
2019-05-22T15:18:21.251Z,101008.55
2019-05-22T15:23:25.375Z,101011.20
2019-05-22T15:28:29.677Z,101016.24
2019-05-22T15:33:34.018Z,101012.91
2019-05-22T15:38:40.899Z,101012.61
2019-05-22T15:43:52.066Z,101010.97
2019-05-22T15:48:55.170Z,101015.30
2019-05-22T15:54:01.444Z,101012.91
2019-05-22T15:59:07.639Z,101021.23
2019-05-22T16:04:13.441Z,101017.88
2019-05-22T16:09:17.720Z,101025.10
2019-05-22T16:14:22.060Z,101022.48
2019-05-22T16:19:28.468Z,101026.35
2019-05-22T16:24:34.697Z,101034.14
2019-05-22T16:29:40.452Z,101024.61
2019-05-22T16:34:45.528Z,101031.29
2019-05-22T16:39:50.672Z,101033.81
2019-05-22T16:44:55.015Z,101033.98
2019-05-22T16:49:59.162Z,101044.20
2019-05-22T16:55:04.468Z,101050.79
2019-05-22T17:00:11.669Z,101049.73
2019-05-22T17:05:18.234Z,101052.80
2019-05-22T17:10:23.644Z,101065.23
2019-05-22T17:15:28.274Z,101071.78
2019-05-22T17:20:32.316Z,101062.34
2019-05-22T17:25:36.851Z,101067.08
2019-05-22T17:30:41.633Z,101068.30
2019-05-22T17:35:46.614Z,101069.98
2019-05-22T17:40:52.307Z,101066.78
2019-05-22T17:45:57.783Z,101064.73
2019-05-22T17:51:03.575Z,101068.26
2019-05-22T17:56:10.310Z,101071.25
2019-05-22T18:01:16.514Z,101069.09
2019-05-22T18:06:22.335Z,101080.19
2019-05-22T18:11:28.278Z,101076.30
2019-05-22T18:16:33.162Z,101085.70
2019-05-22T18:21:37.334Z,101091.12
2019-05-22T18:26:41.711Z,101094.14
2019-05-22T18:31:45.779Z,101103.02
2019-05-22T18:36:50.221Z,101104.37
2019-05-22T18:41:54.468Z,101108.59
2019-05-22T18:46:58.530Z,101115.89
2019-05-22T18:52:02.823Z,101118.85
2019-05-22T18:57:08.392Z,101128.33
2019-05-22T19:02:12.569Z,101141.97
2019-05-22T19:07:16.630Z,101152.55
2019-05-22T19:12:20.646Z,101156.77
2019-05-22T19:17:25.069Z,101150.53
2019-05-22T19:22:29.335Z,101151.44
2019-05-22T19:27:33.493Z,101166.44
2019-05-22T19:32:37.930Z,101172.81
2019-05-22T19:37:42.074Z,101168.48
2019-05-22T19:42:46.278Z,101171.39
2019-05-22T19:47:52.730Z,101181.64
2019-05-22T19:52:57.021Z,101188.03
2019-05-22T19:58:01.160Z,101194.58
2019-05-22T20:03:05.152Z,101202.16
2019-05-22T20:08:09.946Z,101204.00
2019-05-22T20:13:18.737Z,101211.36
2019-05-22T20:18:24.529Z,101210.40
2019-05-22T20:23:36.012Z,101214.59
2019-05-22T20:28:36.202Z,101223.84
2019-05-22T20:33:40.334Z,101218.83
2019-05-22T20:38:56.852Z,101222.67
2019-05-22T20:44:01.706Z,101224.70
2019-05-22T20:49:06.663Z,101236.44
2019-05-22T20:54:11.341Z,101237.78
2019-05-22T20:59:15.865Z,101241.66
2019-05-22T21:04:19.954Z,101240.66
2019-05-22T21:09:24.251Z,101242.66
2019-05-22T21:14:28.941Z,101239.47
2019-05-22T21:19:33.054Z,101240.13
2019-05-22T21:24:37.513Z,101246.34
2019-05-22T21:29:42.243Z,101246.69
2019-05-22T21:34:46.403Z,101245.84
2019-05-22T21:39:50.726Z,101236.61
2019-05-22T21:45:07.680Z,101232.59
2019-05-22T21:50:11.816Z,101233.77
2019-05-22T21:55:16.774Z,101237.11
2019-05-22T22:00:36.668Z,101240.80
2019-05-22T22:05:49.579Z,101248.53
2019-05-22T22:10:56.367Z,101243.48
2019-05-22T22:16:04.075Z,101248.50
2019-05-22T22:21:11.762Z,101249.03
2019-05-22T22:26:25.430Z,101254.22
2019-05-22T22:31:23.817Z,101257.43
2019-05-22T22:36:29.263Z,101262.11
2019-05-22T22:41:33.863Z,101259.92
2019-05-22T22:46:39.595Z,101264.64
2019-05-22T22:51:44.804Z,101266.48
2019-05-22T22:56:49.167Z,101264.11
2019-05-22T23:01:54.012Z,101272.84
2019-05-22T23:07:03.721Z,101272.16
2019-05-22T23:12:08.652Z,101279.85
2019-05-22T23:17:12.696Z,101271.81
2019-05-22T23:22:15.135Z,101273.45
2019-05-22T23:27:20.081Z,101275.09
2019-05-22T23:32:24.745Z,101279.45
2019-05-22T23:37:28.900Z,101292.37
2019-05-22T23:42:35.863Z,101298.58
2019-05-22T23:48:04.001Z,101293.65
2019-05-22T23:53:09.356Z,101294.19
2019-05-22T23:58:13.965Z,101291.67
